sensor_id;sensor_type;location;lat;lon;timestamp;pressure;altitude;pressure_sealevel;temperature;humidity
31121;BME280;17770;45.966;13.632;2023-03-26T00:00:29;100200.44;;;18.11;58.24
31121;BME280;17770;45.966;13.632;2023-03-26T00:02:55;100200.44;;;18.11;58.34
31121;BME280;17770;45.966;13.632;2023-03-26T00:05:21;100186.59;;;18.11;58.13
31121;BME280;17770;45.966;13.632;2023-03-26T00:07:47;100189.09;;;18.12;58.12
31121;BME280;17770;45.966;13.632;2023-03-26T00:10:13;100184.78;;;18.11;58.42
31121;BME280;17770;45.966;13.632;2023-03-26T00:12:40;100185.75;;;18.10;58.14
31121;BME280;17770;45.966;13.632;2023-03-26T00:15:06;100182.28;;;18.10;58.22
31121;BME280;17770;45.966;13.632;2023-03-26T00:17:32;100182.38;;;18.08;58.36
31121;BME280;17770;45.966;13.632;2023-03-26T00:19:59;100178.09;;;18.07;58.30
31121;BME280;17770;45.966;13.632;2023-03-26T00:22:24;100178.09;;;18.07;58.39
31121;BME280;17770;45.966;13.632;2023-03-26T00:24:51;100177.25;;;18.07;58.52
31121;BME280;17770;45.966;13.632;2023-03-26T00:27:16;100175.59;;;18.06;58.21
31121;BME280;17770;45.966;13.632;2023-03-26T00:29:42;100176.50;;;18.05;58.62
31121;BME280;17770;45.966;13.632;2023-03-26T00:32:09;100179.97;;;18.05;58.32
31121;BME280;17770;45.966;13.632;2023-03-26T00:34:35;100180.81;;;18.06;58.22
31121;BME280;17770;45.966;13.632;2023-03-26T00:37:01;100177.34;;;18.05;58.55
31121;BME280;17770;45.966;13.632;2023-03-26T00:39:27;100179.13;;;18.05;58.30
31121;BME280;17770;45.966;13.632;2023-03-26T00:41:54;100177.34;;;18.05;58.16
31121;BME280;17770;45.966;13.632;2023-03-26T00:44:20;100187.03;;;18.03;58.06
31121;BME280;17770;45.966;13.632;2023-03-26T00:46:47;100178.31;;;18.04;58.27
31121;BME280;17770;45.966;13.632;2023-03-26T00:49:13;100177.47;;;18.04;58.27
31121;BME280;17770;45.966;13.632;2023-03-26T00:51:42;100176.59;;;18.03;58.23
31121;BME280;17770;45.966;13.632;2023-03-26T00:54:08;100175.69;;;18.04;58.03
31121;BME280;17770;45.966;13.632;2023-03-26T00:56:34;100172.34;;;18.02;58.10
31121;BME280;17770;45.966;13.632;2023-03-26T00:59:00;100172.34;;;18.02;58.12
31121;BME280;17770;45.966;13.632;2023-03-26T01:01:27;100174.84;;;18.04;57.96
31121;BME280;17770;45.966;13.632;2023-03-26T01:03:53;100169.81;;;18.01;58.06
31121;BME280;17770;45.966;13.632;2023-03-26T01:06:29;100162.00;;;18.01;58.30
31121;BME280;17770;45.966;13.632;2023-03-26T01:09:01;100168.97;;;18.00;57.96
31121;BME280;17770;45.966;13.632;2023-03-26T01:11:30;100162.81;;;18.01;58.04
31121;BME280;17770;45.966;13.632;2023-03-26T01:14:01;100157.69;;;18.00;58.28
31121;BME280;17770;45.966;13.632;2023-03-26T01:16:29;100149.97;;;17.98;58.07
31121;BME280;17770;45.966;13.632;2023-03-26T01:18:56;100150.06;;;17.97;58.13
31121;BME280;17770;45.966;13.632;2023-03-26T01:21:24;100146.63;;;17.96;58.24
31121;BME280;17770;45.966;13.632;2023-03-26T01:24:01;100139.72;;;17.95;58.40
31121;BME280;17770;45.966;13.632;2023-03-26T01:29:00;100131.16;;;17.93;58.15
31121;BME280;17770;45.966;13.632;2023-03-26T01:31:38;100127.72;;;17.93;58.30
31121;BME280;17770;45.966;13.632;2023-03-26T01:36:40;100127.72;;;17.93;58.24
31121;BME280;17770;45.966;13.632;2023-03-26T01:39:08;100114.69;;;17.93;58.39
31121;BME280;17770;45.966;13.632;2023-03-26T01:41:44;100125.22;;;17.91;58.42
31121;BME280;17770;45.966;13.632;2023-03-26T01:46:46;100117.38;;;17.91;58.26
31121;BME280;17770;45.966;13.632;2023-03-26T01:49:12;100113.94;;;17.91;58.15
31121;BME280;17770;45.966;13.632;2023-03-26T01:51:39;100120.06;;;17.90;58.17
31121;BME280;17770;45.966;13.632;2023-03-26T01:54:07;100123.53;;;17.90;58.10
31121;BME280;17770;45.966;13.632;2023-03-26T02:06:50;100122.78;;;17.88;58.18
31121;BME280;17770;45.966;13.632;2023-03-26T02:09:19;100112.44;;;17.87;58.26
31121;BME280;17770;45.966;13.632;2023-03-26T02:11:47;100105.47;;;17.87;58.27
31121;BME280;17770;45.966;13.632;2023-03-26T02:14:14;100102.84;;;17.87;58.11
31121;BME280;17770;45.966;13.632;2023-03-26T02:16:39;100102.94;;;17.86;58.39
31121;BME280;17770;45.966;13.632;2023-03-26T02:19:06;100095.13;;;17.86;58.08
31121;BME280;17770;45.966;13.632;2023-03-26T02:21:40;100097.00;;;17.84;58.16
31121;BME280;17770;45.966;13.632;2023-03-26T02:24:06;100107.53;;;17.82;58.24
31121;BME280;17770;45.966;13.632;2023-03-26T02:26:34;100099.59;;;17.84;57.97
31121;BME280;17770;45.966;13.632;2023-03-26T02:29:09;100103.06;;;17.84;58.14
31121;BME280;17770;45.966;13.632;2023-03-26T02:31:37;100101.34;;;17.83;58.10
31121;BME280;17770;45.966;13.632;2023-03-26T02:34:02;100112.63;;;17.84;58.23
31121;BME280;17770;45.966;13.632;2023-03-26T02:36:31;100111.06;;;17.81;58.14
31121;BME280;17770;45.966;13.632;2023-03-26T02:39:00;100105.00;;;17.81;58.13
31121;BME280;17770;45.966;13.632;2023-03-26T02:41:28;100095.53;;;17.80;58.03
31121;BME280;17770;45.966;13.632;2023-03-26T02:43:59;100103.34;;;17.80;58.44
31121;BME280;17770;45.966;13.632;2023-03-26T02:46:44;100100.00;;;17.78;58.37
31121;BME280;17770;45.966;13.632;2023-03-26T02:49:30;100106.03;;;17.78;57.81
31121;BME280;17770;45.966;13.632;2023-03-26T02:51:56;100106.03;;;17.78;57.94
31121;BME280;17770;45.966;13.632;2023-03-26T02:54:25;100094.78;;;17.78;58.08
31121;BME280;17770;45.966;13.632;2023-03-26T02:57:06;100094.69;;;17.79;57.97
31121;BME280;17770;45.966;13.632;2023-03-26T02:59:55;100099.91;;;17.79;57.98
31121;BME280;17770;45.966;13.632;2023-03-26T03:02:36;100097.38;;;17.78;58.24
31121;BME280;17770;45.966;13.632;2023-03-26T03:05:21;100088.81;;;17.76;57.85
31121;BME280;17770;45.966;13.632;2023-03-26T03:07:55;100095.69;;;17.77;57.72
31121;BME280;17770;45.966;13.632;2023-03-26T03:10:26;100084.44;;;17.76;57.93
31121;BME280;17770;45.966;13.632;2023-03-26T03:13:07;100102.69;;;17.76;58.03
31121;BME280;17770;45.966;13.632;2023-03-26T03:15:33;100093.28;;;17.74;57.89
31121;BME280;17770;45.966;13.632;2023-03-26T03:17:59;100101.09;;;17.74;58.21
31121;BME280;17770;45.966;13.632;2023-03-26T03:20:28;100096.84;;;17.73;58.15
31121;BME280;17770;45.966;13.632;2023-03-26T03:22:55;100108.09;;;17.73;58.04
31121;BME280;17770;45.966;13.632;2023-03-26T03:25:21;100110.78;;;17.72;58.16
31121;BME280;17770;45.966;13.632;2023-03-26T03:27:49;100111.75;;;17.71;58.63
31121;BME280;17770;45.966;13.632;2023-03-26T03:30:15;100118.53;;;17.73;57.98
31121;BME280;17770;45.966;13.632;2023-03-26T03:32:43;100105.47;;;17.73;58.20
31121;BME280;17770;45.966;13.632;2023-03-26T03:35:10;100101.31;;;17.71;57.98
31121;BME280;17770;45.966;13.632;2023-03-26T03:37:36;100101.41;;;17.69;58.15
31121;BME280;17770;45.966;13.632;2023-03-26T03:40:03;100110.88;;;17.70;58.04
31121;BME280;17770;45.966;13.632;2023-03-26T03:42:33;100113.59;;;17.69;58.28
31121;BME280;17770;45.966;13.632;2023-03-26T03:45:02;100115.28;;;17.70;58.29
31121;BME280;17770;45.966;13.632;2023-03-26T03:47:46;100114.44;;;17.69;58.16
31121;BME280;17770;45.966;13.632;2023-03-26T03:50:15;100125.72;;;17.70;57.77
31121;BME280;17770;45.966;13.632;2023-03-26T03:52:55;100121.44;;;17.69;58.12
31121;BME280;17770;45.966;13.632;2023-03-26T03:55:21;100117.16;;;17.68;57.72
31121;BME280;17770;45.966;13.632;2023-03-26T03:57:51;100106.81;;;17.66;58.19
31121;BME280;17770;45.966;13.632;2023-03-26T04:00:19;100105.97;;;17.66;58.29
31121;BME280;17770;45.966;13.632;2023-03-26T04:02:59;100113.78;;;17.66;58.17
31121;BME280;17770;45.966;13.632;2023-03-26T04:05:31;100109.44;;;17.66;58.15
31121;BME280;17770;45.966;13.632;2023-03-26T04:07:57;100110.25;;;17.67;57.90
31121;BME280;17770;45.966;13.632;2023-03-26T04:10:27;100112.84;;;17.67;57.87
31121;BME280;17770;45.966;13.632;2023-03-26T04:13:21;100108.59;;;17.66;57.96
31121;BME280;17770;45.966;13.632;2023-03-26T04:15:53;100098.25;;;17.64;58.34
31121;BME280;17770;45.966;13.632;2023-03-26T04:18:19;100106.91;;;17.65;57.82
31121;BME280;17770;45.966;13.632;2023-03-26T04:20:47;100097.41;;;17.64;57.99
31121;BME280;17770;45.966;13.632;2023-03-26T04:23:25;100100.00;;;17.64;57.77
31121;BME280;17770;45.966;13.632;2023-03-26T04:26:00;100102.72;;;17.62;57.79
31121;BME280;17770;45.966;13.632;2023-03-26T04:28:43;100102.81;;;17.61;58.03
31121;BME280;17770;45.966;13.632;2023-03-26T04:31:19;100101.97;;;17.60;58.14
31121;BME280;17770;45.966;13.632;2023-03-26T04:33:54;100093.31;;;17.60;58.12
31121;BME280;17770;45.966;13.632;2023-03-26T04:36:26;100101.16;;;17.60;58.16
31121;BME280;17770;45.966;13.632;2023-03-26T04:38:53;100089.03;;;17.59;57.73
31121;BME280;17770;45.966;13.632;2023-03-26T04:41:25;100071.63;;;17.59;57.86
31121;BME280;17770;45.966;13.632;2023-03-26T04:43:54;100069.09;;;17.58;58.05
31121;BME280;17770;45.966;13.632;2023-03-26T04:46:24;100076.09;;;17.57;58.10
31121;BME280;17770;45.966;13.632;2023-03-26T04:49:07;100083.91;;;17.57;58.02
31121;BME280;17770;45.966;13.632;2023-03-26T04:51:36;100076.94;;;17.58;57.88
31121;BME280;17770;45.966;13.632;2023-03-26T04:54:08;100074.22;;;17.59;57.85
31121;BME280;17770;45.966;13.632;2023-03-26T04:57:01;100069.09;;;17.58;58.26
31121;BME280;17770;45.966;13.632;2023-03-26T04:59:31;100070.06;;;17.57;57.77
31121;BME280;17770;45.966;13.632;2023-03-26T05:02:05;100064.00;;;17.56;57.99
31121;BME280;17770;45.966;13.632;2023-03-26T05:04:38;100062.13;;;17.58;58.23
31121;BME280;17770;45.966;13.632;2023-03-26T05:07:09;100067.50;;;17.55;58.14
31121;BME280;17770;45.966;13.632;2023-03-26T05:09:42;100064.09;;;17.55;57.79
31121;BME280;17770;45.966;13.632;2023-03-26T05:12:14;100059.69;;;17.55;57.75
31121;BME280;17770;45.966;13.632;2023-03-26T05:14:59;100055.41;;;17.54;58.02
31121;BME280;17770;45.966;13.632;2023-03-26T05:17:38;100053.75;;;17.53;57.56
31121;BME280;17770;45.966;13.632;2023-03-26T05:20:25;100051.97;;;17.54;57.77
31121;BME280;17770;45.966;13.632;2023-03-26T05:22:51;100056.47;;;17.52;57.73
31121;BME280;17770;45.966;13.632;2023-03-26T05:25:29;100052.91;;;17.53;58.00
31121;BME280;17770;45.966;13.632;2023-03-26T05:27:56;100058.22;;;17.51;58.02
31121;BME280;17770;45.966;13.632;2023-03-26T05:30:27;100060.75;;;17.53;58.12
31121;BME280;17770;45.966;13.632;2023-03-26T05:32:57;100059.13;;;17.50;57.92
31121;BME280;17770;45.966;13.632;2023-03-26T05:35:28;100053.94;;;17.50;58.07
31121;BME280;17770;45.966;13.632;2023-03-26T05:37:54;100052.16;;;17.51;57.74
31121;BME280;17770;45.966;13.632;2023-03-26T05:40:22;100053.09;;;17.50;58.07
31121;BME280;17770;45.966;13.632;2023-03-26T05:42:59;100053.94;;;17.50;57.83
31121;BME280;17770;45.966;13.632;2023-03-26T05:45:25;100054.78;;;17.51;57.84
31121;BME280;17770;45.966;13.632;2023-03-26T05:47:51;100050.50;;;17.50;58.10
31121;BME280;17770;45.966;13.632;2023-03-26T05:50:23;100045.28;;;17.50;57.97
31121;BME280;17770;45.966;13.632;2023-03-26T05:52:51;100043.69;;;17.47;57.82
31121;BME280;17770;45.966;13.632;2023-03-26T05:55:36;100048.81;;;17.49;58.02
31121;BME280;17770;45.966;13.632;2023-03-26T05:58:20;100041.00;;;17.49;58.10
31121;BME280;17770;45.966;13.632;2023-03-26T06:01:06;100052.38;;;17.48;57.62
31121;BME280;17770;45.966;13.632;2023-03-26T06:03:52;100047.16;;;17.48;57.83
31121;BME280;17770;45.966;13.632;2023-03-26T06:06:20;100049.66;;;17.49;57.46
31121;BME280;17770;45.966;13.632;2023-03-26T06:08:56;100046.22;;;17.49;57.93
31121;BME280;17770;45.966;13.632;2023-03-26T06:11:22;100054.88;;;17.49;58.10
31121;BME280;17770;45.966;13.632;2023-03-26T06:13:48;100054.97;;;17.48;57.96
31121;BME280;17770;45.966;13.632;2023-03-26T06:16:14;100051.53;;;17.47;58.10
31121;BME280;17770;45.966;13.632;2023-03-26T06:18:52;100056.72;;;17.47;57.45
31121;BME280;17770;45.966;13.632;2023-03-26T06:21:54;100056.72;;;17.47;57.74
31121;BME280;17770;45.966;13.632;2023-03-26T06:24:31;100061.94;;;17.47;57.82
31121;BME280;17770;45.966;13.632;2023-03-26T06:27:05;100071.56;;;17.47;57.75
31121;BME280;17770;45.966;13.632;2023-03-26T06:29:46;100070.72;;;17.46;57.73
31121;BME280;17770;45.966;13.632;2023-03-26T06:32:31;100072.38;;;17.47;57.77
31121;BME280;17770;45.966;13.632;2023-03-26T06:35:04;100072.38;;;17.47;57.55
31121;BME280;17770;45.966;13.632;2023-03-26T06:37:30;100063.75;;;17.47;57.76
31121;BME280;17770;45.966;13.632;2023-03-26T06:39:59;100069.88;;;17.46;57.79
31121;BME280;17770;45.966;13.632;2023-03-26T06:42:54;100060.34;;;17.45;57.43
31121;BME280;17770;45.966;13.632;2023-03-26T06:45:41;100046.41;;;17.46;57.51
31121;BME280;17770;45.966;13.632;2023-03-26T06:48:45;100055.97;;;17.45;57.20
31121;BME280;17770;45.966;13.632;2023-03-26T06:51:30;100054.22;;;17.46;57.70
31121;BME280;17770;45.966;13.632;2023-03-26T06:54:16;100045.63;;;17.44;57.50
31121;BME280;17770;45.966;13.632;2023-03-26T06:56:51;100048.22;;;17.44;57.99
31121;BME280;17770;45.966;13.632;2023-03-26T06:59:40;100044.72;;;17.45;57.71
31121;BME280;17770;45.966;13.632;2023-03-26T07:02:24;100039.50;;;17.45;57.55
31121;BME280;17770;45.966;13.632;2023-03-26T07:05:13;100031.66;;;17.45;57.44
31121;BME280;17770;45.966;13.632;2023-03-26T07:07:58;100027.25;;;17.47;57.24
31121;BME280;17770;45.966;13.632;2023-03-26T07:10:43;100027.31;;;17.45;57.52
31121;BME280;17770;45.966;13.632;2023-03-26T07:13:29;100014.28;;;17.45;57.88
31121;BME280;17770;45.966;13.632;2023-03-26T07:16:24;100016.88;;;17.45;57.35
31121;BME280;17770;45.966;13.632;2023-03-26T07:18:53;100017.72;;;17.46;57.67
31121;BME280;17770;45.966;13.632;2023-03-26T07:21:22;100004.69;;;17.46;57.23
31121;BME280;17770;45.966;13.632;2023-03-26T07:23:48;100004.69;;;17.46;57.56
31121;BME280;17770;45.966;13.632;2023-03-26T07:26:50;100006.38;;;17.47;57.16
31121;BME280;17770;45.966;13.632;2023-03-26T07:29:32;100013.34;;;17.46;57.07
31121;BME280;17770;45.966;13.632;2023-03-26T07:35:24;100019.31;;;17.48;57.53
31121;BME280;17770;45.966;13.632;2023-03-26T07:47:19;100026.38;;;17.46;57.44
31121;BME280;17770;45.966;13.632;2023-03-26T07:50:12;100016.88;;;17.45;57.13
31121;BME280;17770;45.966;13.632;2023-03-26T07:52:56;100017.72;;;17.46;57.95
31121;BME280;17770;45.966;13.632;2023-03-26T07:55:52;100009.00;;;17.47;57.24
31121;BME280;17770;45.966;13.632;2023-03-26T08:02:34;99997.72;;;17.46;57.43
31121;BME280;17770;45.966;13.632;2023-03-26T08:04:52;99986.44;;;17.46;57.20
31121;BME280;17770;45.966;13.632;2023-03-26T08:10:36;99984.69;;;17.46;57.65
31121;BME280;17770;45.966;13.632;2023-03-26T08:18:11;99982.13;;;17.45;57.20
31121;BME280;17770;45.966;13.632;2023-03-26T08:20:45;99984.75;;;17.45;57.41
31121;BME280;17770;45.966;13.632;2023-03-26T08:23:14;99981.28;;;17.44;57.24
31121;BME280;17770;45.966;13.632;2023-03-26T08:25:45;99973.47;;;17.44;57.30
31121;BME280;17770;45.966;13.632;2023-03-26T08:30:48;99976.00;;;17.46;57.41
31121;BME280;17770;45.966;13.632;2023-03-26T08:33:15;99969.94;;;17.45;57.46
31121;BME280;17770;45.966;13.632;2023-03-26T08:35:43;99966.44;;;17.46;57.64
31121;BME280;17770;45.966;13.632;2023-03-26T08:38:09;99970.78;;;17.46;57.69
31121;BME280;17770;45.966;13.632;2023-03-26T08:56:15;99947.22;;;17.47;57.62
31121;BME280;17770;45.966;13.632;2023-03-26T09:07:12;99921.06;;;17.49;57.22
31121;BME280;17770;45.966;13.632;2023-03-26T09:53:46;99853.53;;;17.58;57.73
31121;BME280;17770;45.966;13.632;2023-03-26T09:58:54;99855.19;;;17.59;58.15
31121;BME280;17770;45.966;13.632;2023-03-26T10:19:21;99837.56;;;17.63;57.99
31121;BME280;17770;45.966;13.632;2023-03-26T10:24:42;99833.91;;;17.65;57.94
31121;BME280;17770;45.966;13.632;2023-03-26T10:35:11;99817.00;;;17.71;57.91
31121;BME280;17770;45.966;13.632;2023-03-26T10:37:46;99812.75;;;17.70;58.54
31121;BME280;17770;45.966;13.632;2023-03-26T10:48:09;99795.03;;;17.75;58.13
31121;BME280;17770;45.966;13.632;2023-03-26T10:50:51;99796.69;;;17.76;58.49
31121;BME280;17770;45.966;13.632;2023-03-26T10:53:23;99800.13;;;17.76;58.50
31121;BME280;17770;45.966;13.632;2023-03-26T10:55:52;99793.13;;;17.77;58.89
31121;BME280;17770;45.966;13.632;2023-03-26T11:00:55;99805.25;;;17.78;58.92
31121;BME280;17770;45.966;13.632;2023-03-26T11:09:06;99798.97;;;17.80;58.84
31121;BME280;17770;45.966;13.632;2023-03-26T11:19:30;99773.63;;;17.82;59.58
31121;BME280;17770;45.966;13.632;2023-03-26T11:22:00;99768.41;;;17.82;58.99
31121;BME280;17770;45.966;13.632;2023-03-26T11:26:55;99753.59;;;17.83;59.26
31121;BME280;17770;45.966;13.632;2023-03-26T11:29:29;99752.53;;;17.85;59.38
31121;BME280;17770;45.966;13.632;2023-03-26T11:32:09;99749.00;;;17.86;59.41
31121;BME280;17770;45.966;13.632;2023-03-26T11:34:37;99755.03;;;17.87;59.15
31121;BME280;17770;45.966;13.632;2023-03-26T11:37:05;99752.41;;;17.87;59.64
31121;BME280;17770;45.966;13.632;2023-03-26T11:39:36;99747.09;;;17.88;59.39
31121;BME280;17770;45.966;13.632;2023-03-26T11:42:06;99742.72;;;17.89;59.53
31121;BME280;17770;45.966;13.632;2023-03-26T11:45:04;99734.78;;;17.90;59.96
31121;BME280;17770;45.966;13.632;2023-03-26T11:47:35;99728.66;;;17.91;59.90
31121;BME280;17770;45.966;13.632;2023-03-26T11:50:03;99732.06;;;17.92;59.73
31121;BME280;17770;45.966;13.632;2023-03-26T11:52:31;99731.97;;;17.93;59.93
31121;BME280;17770;45.966;13.632;2023-03-26T11:54:57;99734.47;;;17.95;59.79
31121;BME280;17770;45.966;13.632;2023-03-26T11:57:25;99735.31;;;17.95;60.08
31121;BME280;17770;45.966;13.632;2023-03-26T12:00:03;99743.97;;;17.96;59.90
31121;BME280;17770;45.966;13.632;2023-03-26T12:02:46;99738.53;;;17.99;59.84
31121;BME280;17770;45.966;13.632;2023-03-26T12:05:14;99741.03;;;18.00;59.72
31121;BME280;17770;45.966;13.632;2023-03-26T12:07:44;99739.28;;;18.01;59.74
31121;BME280;17770;45.966;13.632;2023-03-26T12:10:24;99738.22;;;18.03;59.77
31121;BME280;17770;45.966;13.632;2023-03-26T12:12:56;99734.69;;;18.04;59.87
31121;BME280;17770;45.966;13.632;2023-03-26T12:15:22;99737.19;;;18.06;59.66
31121;BME280;17770;45.966;13.632;2023-03-26T12:17:50;99737.06;;;18.07;59.75
31121;BME280;17770;45.966;13.632;2023-03-26T12:22:47;99722.94;;;18.10;59.65
31121;BME280;17770;45.966;13.632;2023-03-26T12:25:14;99722.84;;;18.11;60.25
31121;BME280;17770;45.966;13.632;2023-03-26T12:27:44;99707.06;;;18.13;60.08
31121;BME280;17770;45.966;13.632;2023-03-26T12:30:25;99698.31;;;18.14;60.01
31121;BME280;17770;45.966;13.632;2023-03-26T12:32:54;99688.72;;;18.14;60.27
31121;BME280;17770;45.966;13.632;2023-03-26T12:35:24;99689.41;;;18.16;60.48
31121;BME280;17770;45.966;13.632;2023-03-26T12:40:38;99671.88;;;18.18;60.26
31121;BME280;17770;45.966;13.632;2023-03-26T12:43:27;99670.13;;;18.19;60.31
31121;BME280;17770;45.966;13.632;2023-03-26T12:45:54;99668.13;;;18.23;61.22
31121;BME280;17770;45.966;13.632;2023-03-26T12:48:23;99659.22;;;18.25;60.48
31121;BME280;17770;45.966;13.632;2023-03-26T12:53:32;99666.00;;;18.28;60.87
31121;BME280;17770;45.966;13.632;2023-03-26T12:58:46;99676.34;;;18.29;61.49
31121;BME280;17770;45.966;13.632;2023-03-26T13:06:16;99677.06;;;18.31;61.46
31121;BME280;17770;45.966;13.632;2023-03-26T13:08:55;99670.06;;;18.32;61.78
31121;BME280;17770;45.966;13.632;2023-03-26T13:14:27;99652.41;;;18.35;61.42
31121;BME280;17770;45.966;13.632;2023-03-26T13:22:09;99645.09;;;18.40;61.95
31121;BME280;17770;45.966;13.632;2023-03-26T13:37:15;99608.19;;;18.45;62.48
31121;BME280;17770;45.966;13.632;2023-03-26T13:47:41;99585.19;;;18.50;62.27
31121;BME280;17770;45.966;13.632;2023-03-26T13:55:21;99577.97;;;18.53;62.01
31121;BME280;17770;45.966;13.632;2023-03-26T13:57:52;99571.81;;;18.54;62.49
31121;BME280;17770;45.966;13.632;2023-03-26T14:00:22;99563.03;;;18.55;62.74
31121;BME280;17770;45.966;13.632;2023-03-26T14:02:53;99553.28;;;18.57;62.44
31121;BME280;17770;45.966;13.632;2023-03-26T14:05:22;99552.47;;;18.57;62.45
31121;BME280;17770;45.966;13.632;2023-03-26T14:07:50;99535.81;;;18.58;61.68
31121;BME280;17770;45.966;13.632;2023-03-26T14:10:18;99534.06;;;18.58;61.98
31121;BME280;17770;45.966;13.632;2023-03-26T14:15:31;99522.69;;;18.59;61.25
31121;BME280;17770;45.966;13.632;2023-03-26T14:20:53;99519.94;;;18.61;61.73
31121;BME280;17770;45.966;13.632;2023-03-26T14:38:46;99488.84;;;18.69;62.11
31121;BME280;17770;45.966;13.632;2023-03-26T14:41:24;99486.25;;;18.69;61.09
31121;BME280;17770;45.966;13.632;2023-03-26T14:44:04;99481.81;;;18.69;61.39
31121;BME280;17770;45.966;13.632;2023-03-26T14:49:28;99458.31;;;18.69;60.89
31121;BME280;17770;45.966;13.632;2023-03-26T14:52:09;99471.28;;;18.71;60.92
31121;BME280;17770;45.966;13.632;2023-03-26T14:54:39;99457.38;;;18.70;61.00
31121;BME280;17770;45.966;13.632;2023-03-26T15:16:11;99429.13;;;18.75;60.11
31121;BME280;17770;45.966;13.632;2023-03-26T15:24:50;99399.44;;;18.76;60.64
31121;BME280;17770;45.966;13.632;2023-03-26T15:40:26;99381.97;;;18.77;59.73
31121;BME280;17770;45.966;13.632;2023-03-26T15:43:17;99377.59;;;18.77;59.92
31121;BME280;17770;45.966;13.632;2023-03-26T15:45:51;99369.75;;;18.77;59.43
31121;BME280;17770;45.966;13.632;2023-03-26T15:53:33;99350.50;;;18.78;60.07
31121;BME280;17770;45.966;13.632;2023-03-26T16:06:36;99318.91;;;18.81;59.24
31121;BME280;17770;45.966;13.632;2023-03-26T16:09:09;99322.50;;;18.80;59.38
31121;BME280;17770;45.966;13.632;2023-03-26T16:11:47;99315.47;;;18.81;59.26
31121;BME280;17770;45.966;13.632;2023-03-26T16:17:04;99307.63;;;18.81;59.16
31121;BME280;17770;45.966;13.632;2023-03-26T16:19:46;99272.72;;;18.82;59.16
31121;BME280;17770;45.966;13.632;2023-03-26T16:27:43;99249.34;;;18.80;58.76
31121;BME280;17770;45.966;13.632;2023-03-26T16:30:13;99258.81;;;18.81;59.19
31121;BME280;17770;45.966;13.632;2023-03-26T16:32:43;99258.00;;;18.81;58.70
31121;BME280;17770;45.966;13.632;2023-03-26T16:37:42;99241.63;;;18.79;58.97
31121;BME280;17770;45.966;13.632;2023-03-26T16:48:35;99174.53;;;18.79;58.83
31121;BME280;17770;45.966;13.632;2023-03-26T16:53:46;99142.50;;;18.77;58.88
31121;BME280;17770;45.966;13.632;2023-03-26T16:56:22;99139.75;;;18.79;58.64
31121;BME280;17770;45.966;13.632;2023-03-26T16:58:53;99124.09;;;18.79;58.78
31121;BME280;17770;45.966;13.632;2023-03-26T17:09:14;99078.84;;;18.78;58.68
31121;BME280;17770;45.966;13.632;2023-03-26T17:19:57;99117.19;;;18.78;58.64
31121;BME280;17770;45.966;13.632;2023-03-26T17:25:31;99143.44;;;18.76;58.84
31121;BME280;17770;45.966;13.632;2023-03-26T17:31:02;99153.06;;;18.76;58.86
31121;BME280;17770;45.966;13.632;2023-03-26T17:33:33;99160.78;;;18.77;58.79
31121;BME280;17770;45.966;13.632;2023-03-26T17:41:08;99152.25;;;18.75;58.51
31121;BME280;17770;45.966;13.632;2023-03-26T17:46:02;99156.63;;;18.75;58.83
31121;BME280;17770;45.966;13.632;2023-03-26T17:48:29;99149.63;;;18.75;58.62
31121;BME280;17770;45.966;13.632;2023-03-26T17:51:01;99147.16;;;18.74;59.17
31121;BME280;17770;45.966;13.632;2023-03-26T17:53:29;99158.41;;;18.74;59.77
31121;BME280;17770;45.966;13.632;2023-03-26T17:56:00;99160.06;;;18.75;58.75
31121;BME280;17770;45.966;13.632;2023-03-26T17:58:29;99158.41;;;18.74;58.65
31121;BME280;17770;45.966;13.632;2023-03-26T18:03:49;99177.78;;;18.72;59.35
31121;BME280;17770;45.966;13.632;2023-03-26T18:11:49;99212.56;;;18.72;59.22
31121;BME280;17770;45.966;13.632;2023-03-26T18:16:55;99220.41;;;18.72;59.09
31121;BME280;17770;45.966;13.632;2023-03-26T18:19:24;99216.13;;;18.71;59.43
31121;BME280;17770;45.966;13.632;2023-03-26T18:21:57;99216.13;;;18.71;58.77
31121;BME280;17770;45.966;13.632;2023-03-26T18:24:28;99224.91;;;18.70;59.20
31121;BME280;17770;45.966;13.632;2023-03-26T18:29:21;99223.25;;;18.69;59.30
31121;BME280;17770;45.966;13.632;2023-03-26T18:31:51;99219.81;;;18.69;59.05
31121;BME280;17770;45.966;13.632;2023-03-26T18:34:17;99218.84;;;18.70;59.33
31121;BME280;17770;45.966;13.632;2023-03-26T18:36:44;99212.78;;;18.69;58.89
31121;BME280;17770;45.966;13.632;2023-03-26T18:39:11;99200.84;;;18.67;59.05
31121;BME280;17770;45.966;13.632;2023-03-26T18:41:38;99187.78;;;18.67;59.30
31121;BME280;17770;45.966;13.632;2023-03-26T18:44:13;99180.78;;;18.67;58.90
31121;BME280;17770;45.966;13.632;2023-03-26T18:46:40;99176.47;;;18.66;58.86
31121;BME280;17770;45.966;13.632;2023-03-26T18:49:08;99168.66;;;18.66;58.88
31121;BME280;17770;45.966;13.632;2023-03-26T18:51:36;99153.81;;;18.67;58.84
31121;BME280;17770;45.966;13.632;2023-03-26T18:54:02;99147.75;;;18.66;59.05
31121;BME280;17770;45.966;13.632;2023-03-26T18:59:25;99140.75;;;18.67;58.62
31121;BME280;17770;45.966;13.632;2023-03-26T19:01:54;99126.88;;;18.66;58.52
31121;BME280;17770;45.966;13.632;2023-03-26T19:04:22;99116.28;;;18.68;58.56
31121;BME280;17770;45.966;13.632;2023-03-26T19:06:48;99123.19;;;18.69;58.93
31121;BME280;17770;45.966;13.632;2023-03-26T19:09:18;99110.13;;;18.69;58.39
31121;BME280;17770;45.966;13.632;2023-03-26T19:11:44;99111.19;;;18.66;58.74
31121;BME280;17770;45.966;13.632;2023-03-26T19:14:14;99113.81;;;18.66;58.58
31121;BME280;17770;45.966;13.632;2023-03-26T19:16:40;99108.56;;;18.66;58.96